sensor_id;sensor_type;location;lat;lon;timestamp;temperature;humidity
10654;DHT22;5375;51.250;6.776;2023-05-10T00:00:53;21.70;55.80
10654;DHT22;5375;51.250;6.776;2023-05-10T00:03:18;21.70;55.20
10654;DHT22;5375;51.250;6.776;2023-05-10T00:05:44;21.70;55.80
10654;DHT22;5375;51.250;6.776;2023-05-10T00:08:10;21.70;55.80
10654;DHT22;5375;51.250;6.776;2023-05-10T00:10:35;21.70;55.80
10654;DHT22;5375;51.250;6.776;2023-05-10T00:13:03;21.70;55.80
10654;DHT22;5375;51.250;6.776;2023-05-10T00:15:28;21.70;55.80
10654;DHT22;5375;51.250;6.776;2023-05-10T00:17:56;21.70;55.80
10654;DHT22;5375;51.250;6.776;2023-05-10T00:20:22;21.70;55.30
10654;DHT22;5375;51.250;6.776;2023-05-10T00:22:47;21.70;55.80
10654;DHT22;5375;51.250;6.776;2023-05-10T00:25:13;21.70;55.80
10654;DHT22;5375;51.250;6.776;2023-05-10T00:27:38;21.70;55.90
10654;DHT22;5375;51.250;6.776;2023-05-10T00:30:04;21.70;55.90
10654;DHT22;5375;51.250;6.776;2023-05-10T00:32:30;21.60;55.80
10654;DHT22;5375;51.250;6.776;2023-05-10T00:34:56;21.60;55.80
10654;DHT22;5375;51.250;6.776;2023-05-10T00:39:48;21.70;55.30
10654;DHT22;5375;51.250;6.776;2023-05-10T00:42:13;21.60;55.90
10654;DHT22;5375;51.250;6.776;2023-05-10T00:44:39;21.60;55.90
10654;DHT22;5375;51.250;6.776;2023-05-10T00:47:05;21.70;55.90
10654;DHT22;5375;51.250;6.776;2023-05-10T00:49:32;21.70;55.90
10654;DHT22;5375;51.250;6.776;2023-05-10T00:51:58;21.60;55.40
10654;DHT22;5375;51.250;6.776;2023-05-10T00:54:24;21.60;55.90
10654;DHT22;5375;51.250;6.776;2023-05-10T00:56:49;21.60;55.90
10654;DHT22;5375;51.250;6.776;2023-05-10T00:59:16;21.60;55.90
10654;DHT22;5375;51.250;6.776;2023-05-10T01:01:46;21.60;56.00
10654;DHT22;5375;51.250;6.776;2023-05-10T01:04:12;21.60;55.90
10654;DHT22;5375;51.250;6.776;2023-05-10T01:06:42;21.60;56.00
10654;DHT22;5375;51.250;6.776;2023-05-10T01:09:08;21.60;56.00
10654;DHT22;5375;51.250;6.776;2023-05-10T01:11:38;21.60;56.00
10654;DHT22;5375;51.250;6.776;2023-05-10T01:14:05;21.60;56.00
10654;DHT22;5375;51.250;6.776;2023-05-10T01:16:39;21.60;55.40
10654;DHT22;5375;51.250;6.776;2023-05-10T01:19:16;21.60;56.00
10654;DHT22;5375;51.250;6.776;2023-05-10T01:22:00;21.60;56.00
10654;DHT22;5375;51.250;6.776;2023-05-10T01:35:26;21.60;56.10
10654;DHT22;5375;51.250;6.776;2023-05-10T01:43:11;21.60;56.10
10654;DHT22;5375;51.250;6.776;2023-05-10T01:46:14;21.60;56.10
10654;DHT22;5375;51.250;6.776;2023-05-10T01:48:47;21.60;56.10
10654;DHT22;5375;51.250;6.776;2023-05-10T01:51:22;21.60;56.10
10654;DHT22;5375;51.250;6.776;2023-05-10T01:53:48;21.60;56.10
10654;DHT22;5375;51.250;6.776;2023-05-10T01:56:16;21.60;56.10
10654;DHT22;5375;51.250;6.776;2023-05-10T01:58:44;21.60;56.10
10654;DHT22;5375;51.250;6.776;2023-05-10T02:01:13;21.60;56.20
10654;DHT22;5375;51.250;6.776;2023-05-10T02:03:40;21.60;56.20
10654;DHT22;5375;51.250;6.776;2023-05-10T02:06:10;21.60;56.30
10654;DHT22;5375;51.250;6.776;2023-05-10T02:08:39;21.60;56.30
10654;DHT22;5375;51.250;6.776;2023-05-10T02:11:05;21.60;56.30
10654;DHT22;5375;51.250;6.776;2023-05-10T02:13:34;21.60;56.30
10654;DHT22;5375;51.250;6.776;2023-05-10T02:16:01;21.60;56.30
10654;DHT22;5375;51.250;6.776;2023-05-10T02:18:29;21.60;56.30
10654;DHT22;5375;51.250;6.776;2023-05-10T02:20:56;21.60;56.30
10654;DHT22;5375;51.250;6.776;2023-05-10T02:23:23;21.60;56.30
10654;DHT22;5375;51.250;6.776;2023-05-10T02:25:51;21.60;56.30
10654;DHT22;5375;51.250;6.776;2023-05-10T02:28:18;21.60;56.30
10654;DHT22;5375;51.250;6.776;2023-05-10T02:30:44;21.60;56.30
10654;DHT22;5375;51.250;6.776;2023-05-10T02:33:11;21.60;56.30
10654;DHT22;5375;51.250;6.776;2023-05-10T02:35:38;21.60;56.30
10654;DHT22;5375;51.250;6.776;2023-05-10T02:38:04;21.60;56.30
10654;DHT22;5375;51.250;6.776;2023-05-10T02:40:30;21.60;56.20
10654;DHT22;5375;51.250;6.776;2023-05-10T02:42:57;21.60;56.20
10654;DHT22;5375;51.250;6.776;2023-05-10T02:45:27;21.60;56.20
10654;DHT22;5375;51.250;6.776;2023-05-10T02:47:54;21.60;56.30
10654;DHT22;5375;51.250;6.776;2023-05-10T02:50:25;21.50;55.70
10654;DHT22;5375;51.250;6.776;2023-05-10T02:52:55;21.60;56.30
10654;DHT22;5375;51.250;6.776;2023-05-10T02:55:28;21.60;56.30
10654;DHT22;5375;51.250;6.776;2023-05-10T02:57:59;21.60;56.20
10654;DHT22;5375;51.250;6.776;2023-05-10T03:00:25;21.60;56.20
10654;DHT22;5375;51.250;6.776;2023-05-10T03:02:51;21.60;56.20
10654;DHT22;5375;51.250;6.776;2023-05-10T03:05:18;21.60;56.30
10654;DHT22;5375;51.250;6.776;2023-05-10T03:07:44;21.60;56.40
10654;DHT22;5375;51.250;6.776;2023-05-10T03:10:10;21.60;56.40
10654;DHT22;5375;51.250;6.776;2023-05-10T03:18:22;21.60;57.20
10654;DHT22;5375;51.250;6.776;2023-05-10T03:20:49;21.60;56.80
10654;DHT22;5375;51.250;6.776;2023-05-10T03:23:27;21.60;56.80
10654;DHT22;5375;51.250;6.776;2023-05-10T03:25:53;21.60;56.80
10654;DHT22;5375;51.250;6.776;2023-05-10T03:28:20;21.60;56.80
10654;DHT22;5375;51.250;6.776;2023-05-10T03:30:46;21.60;57.40
10654;DHT22;5375;51.250;6.776;2023-05-10T03:33:12;21.60;56.80
10654;DHT22;5375;51.250;6.776;2023-05-10T03:35:39;21.60;56.80
10654;DHT22;5375;51.250;6.776;2023-05-10T03:38:04;21.60;56.80
10654;DHT22;5375;51.250;6.776;2023-05-10T03:40:30;21.60;56.80
10654;DHT22;5375;51.250;6.776;2023-05-10T03:42:58;21.60;56.80
10654;DHT22;5375;51.250;6.776;2023-05-10T03:45:24;21.60;56.80
10654;DHT22;5375;51.250;6.776;2023-05-10T03:47:50;21.60;56.80
10654;DHT22;5375;51.250;6.776;2023-05-10T03:50:15;21.60;56.80
10654;DHT22;5375;51.250;6.776;2023-05-10T03:52:41;21.60;56.80
10654;DHT22;5375;51.250;6.776;2023-05-10T03:55:07;21.60;56.80
10654;DHT22;5375;51.250;6.776;2023-05-10T03:57:33;21.60;56.80
10654;DHT22;5375;51.250;6.776;2023-05-10T04:00:00;21.60;56.80
10654;DHT22;5375;51.250;6.776;2023-05-10T04:02:28;21.60;56.70
10654;DHT22;5375;51.250;6.776;2023-05-10T04:04:55;21.60;56.70
10654;DHT22;5375;51.250;6.776;2023-05-10T04:07:22;21.60;56.60
10654;DHT22;5375;51.250;6.776;2023-05-10T04:09:49;21.60;57.20
10654;DHT22;5375;51.250;6.776;2023-05-10T04:12:15;21.60;56.60
10654;DHT22;5375;51.250;6.776;2023-05-10T04:14:41;21.60;56.60
10654;DHT22;5375;51.250;6.776;2023-05-10T04:17:07;21.60;56.50
10654;DHT22;5375;51.250;6.776;2023-05-10T04:19:33;21.60;56.40
10654;DHT22;5375;51.250;6.776;2023-05-10T04:21:59;21.60;55.80
10654;DHT22;5375;51.250;6.776;2023-05-10T04:24:26;21.60;56.40
10654;DHT22;5375;51.250;6.776;2023-05-10T04:26:52;21.60;56.30
10654;DHT22;5375;51.250;6.776;2023-05-10T04:29:19;21.70;56.40
10654;DHT22;5375;51.250;6.776;2023-05-10T04:31:44;21.70;56.40
10654;DHT22;5375;51.250;6.776;2023-05-10T04:34:10;21.60;56.40
10654;DHT22;5375;51.250;6.776;2023-05-10T04:36:36;21.60;56.40
10654;DHT22;5375;51.250;6.776;2023-05-10T04:39:03;21.60;56.40
10654;DHT22;5375;51.250;6.776;2023-05-10T04:41:29;21.60;56.40
10654;DHT22;5375;51.250;6.776;2023-05-10T04:43:55;21.60;56.40
10654;DHT22;5375;51.250;6.776;2023-05-10T04:46:20;21.60;56.30
10654;DHT22;5375;51.250;6.776;2023-05-10T04:48:46;21.70;56.40
10654;DHT22;5375;51.250;6.776;2023-05-10T04:51:11;21.70;56.40
10654;DHT22;5375;51.250;6.776;2023-05-10T04:53:37;21.70;56.40
10654;DHT22;5375;51.250;6.776;2023-05-10T04:56:03;21.70;56.30
10654;DHT22;5375;51.250;6.776;2023-05-10T04:58:29;21.70;56.30
10654;DHT22;5375;51.250;6.776;2023-05-10T05:00:55;21.60;56.20
10654;DHT22;5375;51.250;6.776;2023-05-10T05:03:20;21.70;56.30
10654;DHT22;5375;51.250;6.776;2023-05-10T05:05:46;21.60;56.20
10654;DHT22;5375;51.250;6.776;2023-05-10T05:08:11;21.70;56.40
10654;DHT22;5375;51.250;6.776;2023-05-10T05:10:38;21.70;56.30
10654;DHT22;5375;51.250;6.776;2023-05-10T05:13:03;21.70;56.30
10654;DHT22;5375;51.250;6.776;2023-05-10T05:15:29;21.70;56.20
10654;DHT22;5375;51.250;6.776;2023-05-10T05:17:55;21.70;56.20
10654;DHT22;5375;51.250;6.776;2023-05-10T05:20:21;21.70;56.20
10654;DHT22;5375;51.250;6.776;2023-05-10T05:22:47;21.70;56.20
10654;DHT22;5375;51.250;6.776;2023-05-10T05:25:13;21.70;56.10
10654;DHT22;5375;51.250;6.776;2023-05-10T05:27:39;21.70;56.10
10654;DHT22;5375;51.250;6.776;2023-05-10T05:30:05;21.70;56.10
10654;DHT22;5375;51.250;6.776;2023-05-10T05:32:31;21.70;56.10
10654;DHT22;5375;51.250;6.776;2023-05-10T05:34:56;21.70;56.00
10654;DHT22;5375;51.250;6.776;2023-05-10T05:37:22;21.70;56.10
10654;DHT22;5375;51.250;6.776;2023-05-10T05:39:48;21.70;56.10
10654;DHT22;5375;51.250;6.776;2023-05-10T05:42:14;21.70;56.10
10654;DHT22;5375;51.250;6.776;2023-05-10T05:44:40;21.70;56.10
10654;DHT22;5375;51.250;6.776;2023-05-10T05:47:06;21.70;56.10
10654;DHT22;5375;51.250;6.776;2023-05-10T05:49:32;21.60;56.00
10654;DHT22;5375;51.250;6.776;2023-05-10T05:52:02;21.60;56.00
10654;DHT22;5375;51.250;6.776;2023-05-10T05:54:28;21.60;56.00
10654;DHT22;5375;51.250;6.776;2023-05-10T05:56:58;21.70;56.00
10654;DHT22;5375;51.250;6.776;2023-05-10T05:59:25;21.70;56.00
10654;DHT22;5375;51.250;6.776;2023-05-10T06:01:50;21.60;55.90
10654;DHT22;5375;51.250;6.776;2023-05-10T06:04:16;21.70;56.00
10654;DHT22;5375;51.250;6.776;2023-05-10T06:06:42;21.70;55.90
10654;DHT22;5375;51.250;6.776;2023-05-10T06:09:09;21.70;55.90
10654;DHT22;5375;51.250;6.776;2023-05-10T06:11:34;21.70;55.90
10654;DHT22;5375;51.250;6.776;2023-05-10T06:14:01;21.70;55.90
10654;DHT22;5375;51.250;6.776;2023-05-10T06:16:27;21.70;55.90
10654;DHT22;5375;51.250;6.776;2023-05-10T06:18:53;21.70;55.90
10654;DHT22;5375;51.250;6.776;2023-05-10T06:21:19;21.70;55.30
10654;DHT22;5375;51.250;6.776;2023-05-10T06:23:44;21.70;55.30
10654;DHT22;5375;51.250;6.776;2023-05-10T06:26:10;21.70;55.30
10654;DHT22;5375;51.250;6.776;2023-05-10T06:28:36;21.70;55.90
10654;DHT22;5375;51.250;6.776;2023-05-10T06:31:04;21.70;55.90
10654;DHT22;5375;51.250;6.776;2023-05-10T06:33:29;21.70;55.80
10654;DHT22;5375;51.250;6.776;2023-05-10T06:35:55;21.70;55.80
10654;DHT22;5375;51.250;6.776;2023-05-10T06:38:21;21.70;55.80
10654;DHT22;5375;51.250;6.776;2023-05-10T06:40:46;21.70;55.80
10654;DHT22;5375;51.250;6.776;2023-05-10T06:43:12;21.70;55.20
10654;DHT22;5375;51.250;6.776;2023-05-10T06:45:38;21.70;55.80
10654;DHT22;5375;51.250;6.776;2023-05-10T06:48:03;20.50;55.20
10654;DHT22;5375;51.250;6.776;2023-05-10T06:50:29;21.70;55.80
10654;DHT22;5375;51.250;6.776;2023-05-10T06:52:55;21.70;55.70
10654;DHT22;5375;51.250;6.776;2023-05-10T06:55:21;21.70;55.80
10654;DHT22;5375;51.250;6.776;2023-05-10T06:57:46;21.70;55.80
10654;DHT22;5375;51.250;6.776;2023-05-10T07:00:13;21.80;55.80
10654;DHT22;5375;51.250;6.776;2023-05-10T07:02:39;21.80;55.70
10654;DHT22;5375;51.250;6.776;2023-05-10T07:05:05;21.80;55.70
10654;DHT22;5375;51.250;6.776;2023-05-10T07:07:31;21.80;55.70
10654;DHT22;5375;51.250;6.776;2023-05-10T07:09:57;21.80;55.70
10654;DHT22;5375;51.250;6.776;2023-05-10T07:12:24;21.80;55.70
10654;DHT22;5375;51.250;6.776;2023-05-10T07:14:50;21.70;55.10
10654;DHT22;5375;51.250;6.776;2023-05-10T07:17:15;21.70;55.70
10654;DHT22;5375;51.250;6.776;2023-05-10T07:19:41;21.80;55.60
10654;DHT22;5375;51.250;6.776;2023-05-10T07:22:07;21.80;55.60
10654;DHT22;5375;51.250;6.776;2023-05-10T07:24:33;21.80;55.60
10654;DHT22;5375;51.250;6.776;2023-05-10T07:26:59;21.80;55.60
10654;DHT22;5375;51.250;6.776;2023-05-10T07:29:25;21.70;55.50
10654;DHT22;5375;51.250;6.776;2023-05-10T07:31:50;21.80;55.60
10654;DHT22;5375;51.250;6.776;2023-05-10T07:34:16;21.70;55.50
10654;DHT22;5375;51.250;6.776;2023-05-10T07:36:42;21.70;55.50
10654;DHT22;5375;51.250;6.776;2023-05-10T07:39:07;21.80;55.50
10654;DHT22;5375;51.250;6.776;2023-05-10T07:41:33;22.40;55.80
10654;DHT22;5375;51.250;6.776;2023-05-10T07:43:59;21.80;55.50
10654;DHT22;5375;51.250;6.776;2023-05-10T07:46:24;21.70;55.40
10654;DHT22;5375;51.250;6.776;2023-05-10T07:48:50;21.80;55.50
10654;DHT22;5375;51.250;6.776;2023-05-10T07:51:16;21.80;55.50
10654;DHT22;5375;51.250;6.776;2023-05-10T07:53:42;21.80;55.50
10654;DHT22;5375;51.250;6.776;2023-05-10T07:56:28;21.80;55.50
10654;DHT22;5375;51.250;6.776;2023-05-10T07:59:02;21.70;55.40
10654;DHT22;5375;51.250;6.776;2023-05-10T08:01:33;21.80;55.50
10654;DHT22;5375;51.250;6.776;2023-05-10T08:04:00;21.80;55.60
10654;DHT22;5375;51.250;6.776;2023-05-10T08:09:04;21.80;55.60
10654;DHT22;5375;51.250;6.776;2023-05-10T08:11:32;21.80;55.50
10654;DHT22;5375;51.250;6.776;2023-05-10T08:13:58;21.80;55.50
10654;DHT22;5375;51.250;6.776;2023-05-10T08:16:24;21.80;55.40
10654;DHT22;5375;51.250;6.776;2023-05-10T08:18:49;21.80;55.50
10654;DHT22;5375;51.250;6.776;2023-05-10T08:21:16;21.80;55.40
10654;DHT22;5375;51.250;6.776;2023-05-10T08:23:41;21.80;55.40
10654;DHT22;5375;51.250;6.776;2023-05-10T08:26:08;21.80;55.40
10654;DHT22;5375;51.250;6.776;2023-05-10T08:28:34;21.80;55.40
10654;DHT22;5375;51.250;6.776;2023-05-10T08:31:00;21.80;55.40
10654;DHT22;5375;51.250;6.776;2023-05-10T08:33:25;21.80;55.50
10654;DHT22;5375;51.250;6.776;2023-05-10T08:35:51;21.80;55.40
10654;DHT22;5375;51.250;6.776;2023-05-10T08:38:18;21.80;55.40
10654;DHT22;5375;51.250;6.776;2023-05-10T08:40:44;21.80;55.40
10654;DHT22;5375;51.250;6.776;2023-05-10T08:43:11;21.80;55.40
10654;DHT22;5375;51.250;6.776;2023-05-10T08:45:42;21.80;55.40
10654;DHT22;5375;51.250;6.776;2023-05-10T08:48:09;21.80;55.40
10654;DHT22;5375;51.250;6.776;2023-05-10T08:50:36;21.80;55.40
10654;DHT22;5375;51.250;6.776;2023-05-10T08:53:05;21.80;55.40
10654;DHT22;5375;51.250;6.776;2023-05-10T08:55:32;21.80;55.40
10654;DHT22;5375;51.250;6.776;2023-05-10T08:58:02;21.80;55.40
10654;DHT22;5375;51.250;6.776;2023-05-10T09:00:28;21.80;55.40
10654;DHT22;5375;51.250;6.776;2023-05-10T09:02:54;21.80;55.40
10654;DHT22;5375;51.250;6.776;2023-05-10T09:05:20;21.80;55.30
10654;DHT22;5375;51.250;6.776;2023-05-10T09:07:45;21.80;56.00
10654;DHT22;5375;51.250;6.776;2023-05-10T09:10:11;21.80;55.30
10654;DHT22;5375;51.250;6.776;2023-05-10T09:12:38;21.80;55.30
10654;DHT22;5375;51.250;6.776;2023-05-10T09:15:05;21.80;55.30
10654;DHT22;5375;51.250;6.776;2023-05-10T09:17:32;21.80;55.30
10654;DHT22;5375;51.250;6.776;2023-05-10T09:20:07;21.80;55.20
10654;DHT22;5375;51.250;6.776;2023-05-10T09:22:34;21.80;55.20
10654;DHT22;5375;51.250;6.776;2023-05-10T09:25:09;21.80;55.20
10654;DHT22;5375;51.250;6.776;2023-05-10T09:27:37;21.80;55.20
10654;DHT22;5375;51.250;6.776;2023-05-10T09:30:04;21.80;55.20
10654;DHT22;5375;51.250;6.776;2023-05-10T09:32:41;21.80;55.20
10654;DHT22;5375;51.250;6.776;2023-05-10T09:35:12;21.80;55.20
10654;DHT22;5375;51.250;6.776;2023-05-10T09:37:42;21.90;55.30
10654;DHT22;5375;51.250;6.776;2023-05-10T09:40:11;21.80;55.20
10654;DHT22;5375;51.250;6.776;2023-05-10T09:42:38;21.90;55.20
10654;DHT22;5375;51.250;6.776;2023-05-10T09:45:04;21.80;55.20
10654;DHT22;5375;51.250;6.776;2023-05-10T09:47:35;21.80;55.20
10654;DHT22;5375;51.250;6.776;2023-05-10T09:50:04;21.80;55.20
10654;DHT22;5375;51.250;6.776;2023-05-10T09:52:31;21.90;55.30
10654;DHT22;5375;51.250;6.776;2023-05-10T09:55:10;21.90;55.30
10654;DHT22;5375;51.250;6.776;2023-05-10T09:57:36;21.80;55.20
10654;DHT22;5375;51.250;6.776;2023-05-10T10:00:02;21.90;55.30
10654;DHT22;5375;51.250;6.776;2023-05-10T10:02:31;21.80;55.20
10654;DHT22;5375;51.250;6.776;2023-05-10T10:04:56;21.90;55.20
10654;DHT22;5375;51.250;6.776;2023-05-10T10:07:24;21.90;55.20
10654;DHT22;5375;51.250;6.776;2023-05-10T10:09:53;21.90;55.20
10654;DHT22;5375;51.250;6.776;2023-05-10T10:12:19;21.90;55.20
10654;DHT22;5375;51.250;6.776;2023-05-10T10:14:46;21.90;55.20
10654;DHT22;5375;51.250;6.776;2023-05-10T10:17:13;21.90;55.10
10654;DHT22;5375;51.250;6.776;2023-05-10T10:19:39;21.90;55.10
10654;DHT22;5375;51.250;6.776;2023-05-10T10:22:05;21.90;55.10
10654;DHT22;5375;51.250;6.776;2023-05-10T10:24:31;21.90;55.00
10654;DHT22;5375;51.250;6.776;2023-05-10T10:27:06;21.90;55.00
10654;DHT22;5375;51.250;6.776;2023-05-10T10:29:47;21.90;55.10
10654;DHT22;5375;51.250;6.776;2023-05-10T10:32:47;21.90;55.10
10654;DHT22;5375;51.250;6.776;2023-05-10T10:35:21;21.90;55.10
10654;DHT22;5375;51.250;6.776;2023-05-10T10:37:47;21.80;55.10
10654;DHT22;5375;51.250;6.776;2023-05-10T10:42:55;21.80;55.10
10654;DHT22;5375;51.250;6.776;2023-05-10T10:45:22;21.80;55.20
10654;DHT22;5375;51.250;6.776;2023-05-10T10:47:48;21.80;55.20
10654;DHT22;5375;51.250;6.776;2023-05-10T10:50:14;21.80;55.20
10654;DHT22;5375;51.250;6.776;2023-05-10T10:52:42;21.80;55.20
10654;DHT22;5375;51.250;6.776;2023-05-10T10:55:12;21.70;55.20
10654;DHT22;5375;51.250;6.776;2023-05-10T11:02:49;21.70;55.20
10654;DHT22;5375;51.250;6.776;2023-05-10T11:08:25;21.70;55.20
10654;DHT22;5375;51.250;6.776;2023-05-10T11:18:54;21.80;55.30
10654;DHT22;5375;51.250;6.776;2023-05-10T11:21:22;21.80;55.20
10654;DHT22;5375;51.250;6.776;2023-05-10T11:26:14;21.80;55.30
10654;DHT22;5375;51.250;6.776;2023-05-10T11:28:47;21.70;55.20
10654;DHT22;5375;51.250;6.776;2023-05-10T11:31:19;21.70;55.20
10654;DHT22;5375;51.250;6.776;2023-05-10T11:33:52;21.70;55.20
10654;DHT22;5375;51.250;6.776;2023-05-10T11:36:23;21.70;55.20
10654;DHT22;5375;51.250;6.776;2023-05-10T11:38:49;21.70;55.20
10654;DHT22;5375;51.250;6.776;2023-05-10T11:41:17;21.70;55.30
10654;DHT22;5375;51.250;6.776;2023-05-10T11:43:46;21.70;55.20
10654;DHT22;5375;51.250;6.776;2023-05-10T11:46:12;21.70;55.20
10654;DHT22;5375;51.250;6.776;2023-05-10T11:48:42;21.70;55.20
10654;DHT22;5375;51.250;6.776;2023-05-10T11:51:09;21.80;55.20
10654;DHT22;5375;51.250;6.776;2023-05-10T11:53:35;21.70;55.20
10654;DHT22;5375;51.250;6.776;2023-05-10T11:56:07;21.80;55.20
10654;DHT22;5375;51.250;6.776;2023-05-10T11:58:34;21.80;55.20
10654;DHT22;5375;51.250;6.776;2023-05-10T12:01:00;21.80;55.20
10654;DHT22;5375;51.250;6.776;2023-05-10T12:03:27;21.70;55.20
10654;DHT22;5375;51.250;6.776;2023-05-10T12:05:54;21.70;55.20
10654;DHT22;5375;51.250;6.776;2023-05-10T12:08:22;21.80;55.20
10654;DHT22;5375;51.250;6.776;2023-05-10T12:10:48;21.70;55.20
10654;DHT22;5375;51.250;6.776;2023-05-10T12:13:14;21.70;55.20
10654;DHT22;5375;51.250;6.776;2023-05-10T12:15:41;21.80;55.20
10654;DHT22;5375;51.250;6.776;2023-05-10T12:18:09;21.70;55.20
10654;DHT22;5375;51.250;6.776;2023-05-10T12:20:37;21.80;55.20
10654;DHT22;5375;51.250;6.776;2023-05-10T12:23:03;21.80;55.20
10654;DHT22;5375;51.250;6.776;2023-05-10T12:25:37;21.80;55.20
10654;DHT22;5375;51.250;6.776;2023-05-10T12:28:05;21.80;55.20
10654;DHT22;5375;51.250;6.776;2023-05-10T12:30:33;21.80;55.20
10654;DHT22;5375;51.250;6.776;2023-05-10T12:33:10;21.80;55.20
10654;DHT22;5375;51.250;6.776;2023-05-10T12:35:47;21.80;55.20
10654;DHT22;5375;51.250;6.776;2023-05-10T12:38:36;21.80;55.20
10654;DHT22;5375;51.250;6.776;2023-05-10T12:41:07;21.80;55.20
10654;DHT22;5375;51.250;6.776;2023-05-10T12:43:33;21.80;55.20
10654;DHT22;5375;51.250;6.776;2023-05-10T12:46:14;21.80;54.60
10654;DHT22;5375;51.250;6.776;2023-05-10T12:48:42;21.90;55.20
10654;DHT22;5375;51.250;6.776;2023-05-10T12:51:08;21.90;55.20
10654;DHT22;5375;51.250;6.776;2023-05-10T12:53:35;21.80;55.10
10654;DHT22;5375;51.250;6.776;2023-05-10T12:56:01;21.80;55.10
10654;DHT22;5375;51.250;6.776;2023-05-10T12:58:27;21.90;55.20
10654;DHT22;5375;51.250;6.776;2023-05-10T13:00:52;21.90;55.10
10654;DHT22;5375;51.250;6.776;2023-05-10T13:03:18;21.90;55.20
10654;DHT22;5375;51.250;6.776;2023-05-10T13:05:44;21.90;55.20
10654;DHT22;5375;51.250;6.776;2023-05-10T13:08:10;21.90;55.20
10654;DHT22;5375;51.250;6.776;2023-05-10T13:10:35;21.90;55.20
10654;DHT22;5375;51.250;6.776;2023-05-10T13:13:01;21.90;54.70
10654;DHT22;5375;51.250;6.776;2023-05-10T13:15:26;21.90;55.30
10654;DHT22;5375;51.250;6.776;2023-05-10T13:17:53;21.90;55.30
10654;DHT22;5375;51.250;6.776;2023-05-10T13:20:19;21.90;55.30
10654;DHT22;5375;51.250;6.776;2023-05-10T13:22:45;21.90;55.20
10654;DHT22;5375;51.250;6.776;2023-05-10T13:25:11;21.90;55.20
10654;DHT22;5375;51.250;6.776;2023-05-10T13:27:37;21.90;55.20
10654;DHT22;5375;51.250;6.776;2023-05-10T13:30:03;21.90;55.20
10654;DHT22;5375;51.250;6.776;2023-05-10T13:32:29;21.90;55.20
10654;DHT22;5375;51.250;6.776;2023-05-10T13:34:56;21.90;55.20
10654;DHT22;5375;51.250;6.776;2023-05-10T13:37:21;21.90;54.70
10654;DHT22;5375;51.250;6.776;2023-05-10T13:39:47;21.90;55.20
10654;DHT22;5375;51.250;6.776;2023-05-10T13:42:14;21.90;55.10
10654;DHT22;5375;51.250;6.776;2023-05-10T13:44:40;22.00;55.20
10654;DHT22;5375;51.250;6.776;2023-05-10T13:47:06;21.90;55.10
10654;DHT22;5375;51.250;6.776;2023-05-10T13:49:31;21.90;55.10
10654;DHT22;5375;51.250;6.776;2023-05-10T13:51:57;21.90;54.60
10654;DHT22;5375;51.250;6.776;2023-05-10T13:54:23;22.00;55.20
10654;DHT22;5375;51.250;6.776;2023-05-10T13:56:49;21.90;55.10
10654;DHT22;5375;51.250;6.776;2023-05-10T13:59:15;21.90;55.10
10654;DHT22;5375;51.250;6.776;2023-05-10T14:01:41;22.00;55.20
10654;DHT22;5375;51.250;6.776;2023-05-10T14:04:08;21.90;55.10
10654;DHT22;5375;51.250;6.776;2023-05-10T14:06:36;21.90;55.10
10654;DHT22;5375;51.250;6.776;2023-05-10T14:09:02;21.90;55.20
10654;DHT22;5375;51.250;6.776;2023-05-10T14:11:28;21.90;55.30
10654;DHT22;5375;51.250;6.776;2023-05-10T14:13:53;21.90;55.30
10654;DHT22;5375;51.250;6.776;2023-05-10T14:16:19;21.90;55.30
10654;DHT22;5375;51.250;6.776;2023-05-10T14:18:45;21.90;55.30
10654;DHT22;5375;51.250;6.776;2023-05-10T14:21:11;21.90;55.40
10654;DHT22;5375;51.250;6.776;2023-05-10T14:23:37;21.90;55.30
10654;DHT22;5375;51.250;6.776;2023-05-10T14:26:06;21.80;55.40
10654;DHT22;5375;51.250;6.776;2023-05-10T14:28:32;21.90;55.50
10654;DHT22;5375;51.250;6.776;2023-05-10T14:30:58;21.90;55.50
10654;DHT22;5375;51.250;6.776;2023-05-10T14:33:24;21.90;55.50
10654;DHT22;5375;51.250;6.776;2023-05-10T14:35:50;21.90;55.50
10654;DHT22;5375;51.250;6.776;2023-05-10T14:38:16;21.90;55.50
10654;DHT22;5375;51.250;6.776;2023-05-10T14:40:42;21.90;55.50
10654;DHT22;5375;51.250;6.776;2023-05-10T14:43:08;21.80;55.50
10654;DHT22;5375;51.250;6.776;2023-05-10T14:45:34;21.80;55.50
10654;DHT22;5375;51.250;6.776;2023-05-10T14:48:00;21.90;55.50
10654;DHT22;5375;51.250;6.776;2023-05-10T14:50:25;21.90;55.50
10654;DHT22;5375;51.250;6.776;2023-05-10T14:52:51;21.90;55.50
10654;DHT22;5375;51.250;6.776;2023-05-10T14:55:17;21.90;55.60
10654;DHT22;5375;51.250;6.776;2023-05-10T14:57:42;21.90;55.50
10654;DHT22;5375;51.250;6.776;2023-05-10T15:00:10;21.90;55.50
10654;DHT22;5375;51.250;6.776;2023-05-10T15:02:35;21.90;55.60
10654;DHT22;5375;51.250;6.776;2023-05-10T15:05:01;21.90;55.60
10654;DHT22;5375;51.250;6.776;2023-05-10T15:07:27;21.90;55.60
10654;DHT22;5375;51.250;6.776;2023-05-10T15:09:53;21.80;55.60
10654;DHT22;5375;51.250;6.776;2023-05-10T15:12:19;21.80;55.60
10654;DHT22;5375;51.250;6.776;2023-05-10T15:14:46;21.90;55.70
10654;DHT22;5375;51.250;6.776;2023-05-10T15:17:11;21.90;55.70
10654;DHT22;5375;51.250;6.776;2023-05-10T15:19:37;21.80;55.60
10654;DHT22;5375;51.250;6.776;2023-05-10T15:22:04;21.90;55.70
10654;DHT22;5375;51.250;6.776;2023-05-10T15:24:30;21.80;55.60
10654;DHT22;5375;51.250;6.776;2023-05-10T15:26:55;21.80;55.60
10654;DHT22;5375;51.250;6.776;2023-05-10T15:29:21;21.80;55.60
10654;DHT22;5375;51.250;6.776;2023-05-10T15:31:47;21.80;55.60
10654;DHT22;5375;51.250;6.776;2023-05-10T15:34:14;21.80;55.60
10654;DHT22;5375;51.250;6.776;2023-05-10T15:36:39;21.80;55.60
10654;DHT22;5375;51.250;6.776;2023-05-10T15:39:05;21.80;55.60
10654;DHT22;5375;51.250;6.776;2023-05-10T15:41:31;21.80;55.60
10654;DHT22;5375;51.250;6.776;2023-05-10T15:43:58;21.80;55.60
10654;DHT22;5375;51.250;6.776;2023-05-10T15:46:27;21.80;55.60
10654;DHT22;5375;51.250;6.776;2023-05-10T15:48:53;21.80;55.60
10654;DHT22;5375;51.250;6.776;2023-05-10T15:51:18;21.80;55.60
10654;DHT22;5375;51.250;6.776;2023-05-10T15:53:44;21.70;55.50
10654;DHT22;5375;51.250;6.776;2023-05-10T15:56:10;21.80;55.60
10654;DHT22;5375;51.250;6.776;2023-05-10T15:58:37;21.80;55.60
10654;DHT22;5375;51.250;6.776;2023-05-10T16:01:03;21.80;55.60
10654;DHT22;5375;51.250;6.776;2023-05-10T16:03:30;21.70;55.50
10654;DHT22;5375;51.250;6.776;2023-05-10T16:05:56;21.70;55.60
10654;DHT22;5375;51.250;6.776;2023-05-10T16:08:22;21.80;55.60
10654;DHT22;5375;51.250;6.776;2023-05-10T16:10:49;21.80;55.60
10654;DHT22;5375;51.250;6.776;2023-05-10T16:13:15;21.80;55.60
10654;DHT22;5375;51.250;6.776;2023-05-10T16:15:41;21.80;55.60
10654;DHT22;5375;51.250;6.776;2023-05-10T16:18:07;21.80;55.60
10654;DHT22;5375;51.250;6.776;2023-05-10T16:20:33;21.80;55.60
10654;DHT22;5375;51.250;6.776;2023-05-10T16:23:04;21.80;55.60
10654;DHT22;5375;51.250;6.776;2023-05-10T16:25:31;21.70;55.60
10654;DHT22;5375;51.250;6.776;2023-05-10T16:27:57;21.70;55.60
10654;DHT22;5375;51.250;6.776;2023-05-10T16:30:23;21.70;55.60
10654;DHT22;5375;51.250;6.776;2023-05-10T16:32:52;21.70;55.60